createdAt,value
2023-03-02T00:01:35.013Z,1.02
2023-03-02T00:04:04.522Z,1.06
2023-03-02T00:06:34.431Z,1.16
2023-03-02T00:09:03.447Z,1.12
2023-03-02T00:11:31.846Z,0.98
2023-03-02T00:13:59.672Z,1.04
2023-03-02T00:16:27.004Z,0.93
2023-03-02T00:18:54.623Z,1.06
2023-03-02T00:21:24.135Z,1.02
2023-03-02T00:23:52.810Z,1.02
2023-03-02T00:26:20.570Z,1.09
2023-03-02T00:28:48.470Z,1.06
2023-03-02T00:31:15.887Z,1.04
2023-03-02T00:33:43.591Z,1.12
2023-03-02T00:36:18.507Z,1.02
2023-03-02T00:38:46.853Z,0.97
2023-03-02T00:41:15.975Z,0.86
2023-03-02T00:43:43.763Z,0.90
2023-03-02T00:46:17.590Z,0.80
2023-03-02T00:48:46.316Z,0.73
2023-03-02T00:51:14.606Z,0.75
2023-03-02T00:53:42.861Z,0.80
2023-03-02T00:56:11.023Z,0.78
2023-03-02T00:58:42.646Z,0.74
2023-03-02T01:01:12.656Z,0.91
2023-03-02T01:03:45.224Z,1.07
2023-03-02T01:06:19.472Z,1.01
2023-03-02T01:08:47.095Z,1.01
2023-03-02T01:11:20.304Z,0.77
2023-03-02T01:13:50.254Z,0.80
2023-03-02T01:16:18.002Z,0.75
2023-03-02T01:18:45.687Z,0.71
2023-03-02T01:21:15.189Z,0.87
2023-03-02T01:23:42.797Z,0.79
2023-03-02T01:26:10.738Z,0.74
2023-03-02T01:28:38.299Z,0.74
2023-03-02T01:31:05.637Z,0.82
2023-03-02T01:33:33.202Z,0.65
2023-03-02T01:36:00.917Z,0.77
2023-03-02T01:38:29.077Z,0.72
2023-03-02T01:40:56.571Z,0.81
2023-03-02T01:43:24.576Z,0.81
2023-03-02T01:45:54.499Z,0.74
2023-03-02T01:48:34.707Z,0.84
2023-03-02T01:51:03.069Z,0.93
2023-03-02T01:53:33.137Z,0.85
2023-03-02T01:56:03.852Z,0.86
2023-03-02T01:58:36.569Z,0.87
2023-03-02T02:01:04.713Z,0.84
2023-03-02T02:03:32.472Z,1.04
2023-03-02T02:06:18.180Z,1.09
2023-03-02T02:08:47.362Z,1.16
2023-03-02T02:11:15.029Z,1.09
2023-03-02T02:13:44.316Z,1.00
2023-03-02T02:16:11.780Z,0.90
2023-03-02T02:18:41.173Z,0.98
2023-03-02T02:21:09.254Z,0.93
2023-03-02T02:23:56.102Z,0.77
2023-03-02T02:26:37.192Z,0.75
2023-03-02T02:29:12.403Z,0.76
2023-03-02T02:31:48.499Z,0.77
2023-03-02T02:34:25.387Z,0.76
2023-03-02T02:37:28.902Z,0.76
2023-03-02T02:39:58.052Z,0.85
2023-03-02T02:42:35.739Z,0.84
2023-03-02T02:45:07.244Z,0.82
2023-03-02T02:47:35.239Z,0.76
2023-03-02T02:50:02.909Z,0.73
2023-03-02T02:52:30.400Z,0.78
2023-03-02T02:54:59.316Z,0.78
2023-03-02T02:57:30.111Z,0.71
2023-03-02T03:00:01.512Z,0.66
2023-03-02T03:02:35.931Z,0.63
2023-03-02T03:05:03.855Z,0.61
2023-03-02T03:07:34.625Z,0.68
2023-03-02T03:10:23.049Z,0.71
2023-03-02T03:12:51.576Z,0.64
2023-03-02T03:15:21.499Z,0.65
2023-03-02T03:17:56.193Z,0.59
2023-03-02T03:20:25.902Z,0.56
2023-03-02T03:22:54.523Z,0.60
2023-03-02T03:25:27.003Z,0.67
2023-03-02T03:27:55.601Z,0.64
2023-03-02T03:30:23.305Z,0.60
2023-03-02T03:32:50.670Z,0.54
2023-03-02T03:35:18.444Z,0.59
2023-03-02T03:37:46.014Z,0.54
2023-03-02T03:40:15.829Z,0.61
2023-03-02T03:42:44.793Z,0.64
2023-03-02T03:45:13.684Z,0.71
2023-03-02T03:47:43.171Z,0.57
2023-03-02T03:50:11.454Z,0.72
2023-03-02T03:52:39.611Z,0.66
2023-03-02T03:55:20.930Z,0.77
2023-03-02T03:57:49.891Z,0.77
2023-03-02T04:00:18.270Z,0.52
2023-03-02T04:03:01.874Z,0.60
2023-03-02T04:05:31.776Z,0.69
2023-03-02T04:08:02.315Z,0.71
2023-03-02T04:10:31.186Z,0.71
2023-03-02T04:12:58.638Z,0.65
2023-03-02T04:15:26.606Z,0.66
2023-03-02T04:17:54.176Z,0.68
2023-03-02T04:20:24.714Z,0.78
2023-03-02T04:22:55.515Z,0.88
2023-03-02T04:25:25.323Z,0.79
2023-03-02T04:27:56.434Z,0.84
2023-03-02T04:30:27.996Z,0.73
2023-03-02T04:32:57.680Z,0.83
2023-03-02T04:35:27.910Z,0.72
2023-03-02T04:37:55.489Z,0.73
2023-03-02T04:40:23.367Z,0.65
2023-03-02T04:42:50.703Z,0.82
2023-03-02T04:45:18.810Z,0.84
2023-03-02T04:47:46.366Z,0.60
2023-03-02T04:50:15.178Z,0.30
2023-03-02T04:52:42.550Z,0.49
2023-03-02T04:55:18.206Z,0.70
2023-03-02T04:57:45.630Z,0.59
2023-03-02T05:00:14.989Z,0.59
2023-03-02T05:02:43.398Z,0.46
2023-03-02T05:05:21.029Z,0.23
2023-03-02T05:07:48.301Z,0.16
2023-03-02T05:10:18.382Z,0.35
2023-03-02T05:12:57.928Z,0.36
2023-03-02T05:15:36.939Z,0.37
2023-03-02T05:18:06.273Z,0.14
2023-03-02T05:20:34.511Z,0.13
2023-03-02T05:23:05.710Z,0.46
2023-03-02T05:25:36.089Z,0.31
2023-03-02T05:28:04.284Z,0.31
2023-03-02T05:30:34.323Z,0.40
2023-03-02T05:33:01.633Z,0.22
2023-03-02T05:35:29.261Z,0.09
2023-03-02T05:37:56.555Z,0.35
2023-03-02T05:40:24.343Z,0.39
2023-03-02T05:42:51.799Z,0.48
2023-03-02T05:45:26.983Z,0.71
2023-03-02T05:47:55.110Z,0.52
2023-03-02T05:50:23.036Z,0.59
2023-03-02T05:52:50.770Z,0.76
2023-03-02T05:55:18.637Z,0.97
2023-03-02T05:57:46.201Z,1.13
2023-03-02T06:00:14.228Z,1.24
2023-03-02T06:02:42.047Z,1.07
2023-03-02T06:05:12.101Z,1.42
2023-03-02T06:07:39.696Z,1.80
2023-03-02T06:10:08.975Z,2.51
2023-03-02T06:12:36.537Z,2.91
2023-03-02T06:15:05.570Z,2.86
2023-03-02T06:17:33.449Z,3.44
2023-03-02T06:20:01.290Z,4.37
2023-03-02T06:22:28.585Z,5.18
2023-03-02T06:24:56.328Z,7.01
2023-03-02T06:27:23.589Z,8.84
2023-03-02T06:29:51.196Z,9.91
2023-03-02T06:32:18.548Z,10.75
2023-03-02T06:34:46.207Z,11.58
2023-03-02T06:37:13.502Z,12.74
2023-03-02T06:39:41.009Z,13.14
2023-03-02T06:42:08.292Z,13.56
2023-03-02T06:44:35.814Z,13.82
2023-03-02T06:47:03.049Z,13.16
2023-03-02T06:49:30.616Z,14.29
2023-03-02T06:51:57.889Z,14.76
2023-03-02T06:54:25.409Z,15.88
2023-03-02T06:56:52.690Z,16.66
2023-03-02T06:59:20.334Z,16.05
2023-03-02T07:01:49.472Z,15.28
2023-03-02T07:04:17.439Z,16.50
2023-03-02T07:06:44.771Z,17.76
2023-03-02T07:09:12.410Z,15.52
2023-03-02T07:11:40.370Z,17.78
2023-03-02T07:14:08.089Z,18.83
2023-03-02T07:16:35.393Z,18.33
2023-03-02T07:19:02.965Z,17.96
2023-03-02T07:21:30.870Z,19.92
2023-03-02T07:23:58.558Z,19.17
2023-03-02T07:26:25.766Z,18.67
2023-03-02T07:28:53.374Z,19.42
2023-03-02T07:31:20.629Z,19.52
2023-03-02T07:33:48.180Z,19.43
2023-03-02T07:36:15.380Z,20.97
2023-03-02T07:38:42.974Z,20.63
2023-03-02T07:41:11.144Z,20.76
2023-03-02T07:43:38.876Z,22.01
2023-03-02T07:46:06.870Z,20.83
2023-03-02T07:48:34.721Z,21.10
2023-03-02T07:51:04.175Z,21.70
2023-03-02T07:53:32.106Z,22.12
2023-03-02T07:56:01.433Z,20.91
2023-03-02T07:58:29.072Z,21.76
2023-03-02T08:00:56.485Z,22.55
2023-03-02T08:03:24.078Z,22.74
2023-03-02T08:05:51.275Z,23.33
2023-03-02T08:08:18.835Z,22.99
2023-03-02T08:10:46.081Z,23.56
2023-03-02T08:13:13.596Z,23.49
2023-03-02T08:15:40.810Z,23.55
2023-03-02T08:18:08.460Z,23.54
2023-03-02T08:20:35.748Z,22.90
2023-03-02T08:23:03.335Z,24.05
2023-03-02T08:25:30.578Z,23.86
2023-03-02T08:27:58.153Z,23.67
2023-03-02T08:30:25.523Z,23.59
2023-03-02T08:32:53.102Z,23.87
2023-03-02T08:35:22.292Z,23.33
2023-03-02T08:37:49.922Z,23.76
2023-03-02T08:40:17.304Z,23.74
2023-03-02T08:42:44.864Z,23.73
2023-03-02T08:45:12.803Z,22.79
2023-03-02T08:47:40.351Z,23.14
2023-03-02T08:50:08.045Z,24.33
2023-03-02T08:52:35.672Z,24.19
2023-03-02T08:55:04.103Z,23.98
2023-03-02T08:57:31.886Z,23.72
2023-03-02T08:59:59.113Z,23.07
2023-03-02T09:02:26.710Z,23.71
2023-03-02T09:04:53.980Z,23.85
2023-03-02T09:07:21.614Z,23.60
2023-03-02T09:09:48.925Z,23.54
2023-03-02T09:12:16.507Z,22.97
2023-03-02T09:14:43.799Z,23.30
2023-03-02T09:17:13.078Z,21.99
2023-03-02T09:19:44.288Z,23.50
2023-03-02T09:22:12.763Z,22.56
2023-03-02T09:24:40.007Z,23.88
2023-03-02T09:27:07.602Z,22.80
2023-03-02T09:29:34.875Z,23.30
2023-03-02T09:32:02.673Z,23.13
2023-03-02T09:34:29.953Z,22.35
2023-03-02T09:36:57.574Z,21.71
2023-03-02T09:39:24.867Z,20.00
2023-03-02T09:42:43.153Z,20.70
2023-03-02T09:45:39.857Z,21.69
2023-03-02T09:48:43.560Z,20.96
2023-03-02T09:51:31.802Z,20.78
2023-03-02T09:54:09.282Z,20.80
2023-03-02T09:56:41.911Z,21.51
2023-03-02T09:59:26.242Z,22.27
2023-03-02T10:02:04.006Z,22.06
2023-03-02T10:04:38.829Z,22.24
2023-03-02T10:07:13.830Z,22.37
2023-03-02T10:09:42.770Z,21.70
2023-03-02T10:12:19.065Z,22.25
2023-03-02T10:14:59.236Z,21.65
2023-03-02T10:17:40.456Z,21.28
2023-03-02T10:20:21.486Z,21.56
2023-03-02T10:23:13.173Z,21.08
2023-03-02T10:25:48.726Z,21.66
2023-03-02T10:28:21.827Z,20.62
2023-03-02T10:31:24.896Z,20.15
2023-03-02T10:33:52.274Z,20.06
2023-03-02T10:36:22.812Z,20.57
2023-03-02T10:38:50.475Z,20.53
2023-03-02T10:41:32.855Z,20.78
2023-03-02T10:44:06.502Z,20.55
2023-03-02T10:46:46.336Z,20.45
2023-03-02T10:49:35.227Z,20.18
2023-03-02T10:52:06.264Z,20.25
2023-03-02T10:54:34.896Z,18.98
2023-03-02T10:57:05.753Z,18.39
2023-03-02T10:59:33.018Z,16.64
2023-03-02T11:02:02.881Z,17.52
2023-03-02T11:04:31.267Z,17.31
2023-03-02T11:07:19.098Z,16.55
2023-03-02T11:10:04.529Z,17.79
2023-03-02T11:12:35.402Z,16.51
2023-03-02T11:15:40.847Z,17.57
2023-03-02T11:18:37.475Z,16.52
2023-03-02T11:21:10.567Z,15.60
2023-03-02T11:23:50.041Z,14.14
2023-03-02T11:26:26.165Z,13.59
2023-03-02T11:29:24.453Z,13.25
2023-03-02T11:31:58.435Z,13.20
2023-03-02T11:34:41.194Z,12.54
2023-03-02T11:37:23.179Z,12.72
2023-03-02T11:39:56.772Z,12.33
2023-03-02T11:42:32.410Z,12.12
2023-03-02T11:45:09.673Z,11.65
2023-03-02T11:47:38.229Z,11.31
2023-03-02T11:50:07.252Z,11.20
2023-03-02T11:52:39.004Z,10.92
2023-03-02T11:55:12.577Z,10.28
2023-03-02T11:57:50.418Z,10.49
2023-03-02T12:00:28.994Z,10.65
2023-03-02T12:03:14.796Z,10.38
2023-03-02T12:05:45.405Z,10.05
2023-03-02T12:08:18.977Z,9.40
2023-03-02T12:11:03.565Z,9.96
2023-03-02T12:13:33.815Z,9.99
2023-03-02T12:16:02.172Z,9.56
2023-03-02T12:18:41.042Z,9.53
2023-03-02T12:21:20.033Z,9.34
2023-03-02T12:23:47.166Z,9.50
2023-03-02T12:26:20.524Z,9.05
2023-03-02T12:29:01.810Z,9.35
2023-03-02T12:31:47.686Z,9.13
2023-03-02T12:34:24.149Z,9.06
2023-03-02T12:36:56.999Z,8.82
2023-03-02T12:39:52.269Z,8.79
2023-03-02T12:42:47.628Z,8.77
2023-03-02T12:45:29.980Z,8.56
2023-03-02T12:48:03.404Z,8.27
2023-03-02T12:50:37.142Z,8.61
2023-03-02T12:53:07.811Z,8.67
2023-03-02T12:55:38.912Z,8.80
2023-03-02T12:58:25.667Z,8.58
2023-03-02T13:00:56.117Z,8.59
2023-03-02T13:03:24.318Z,8.58
2023-03-02T13:05:51.750Z,8.40
2023-03-02T13:08:29.293Z,8.68
2023-03-02T13:11:02.357Z,8.70
2023-03-02T13:13:32.801Z,8.48
2023-03-02T13:16:08.348Z,8.25
2023-03-02T13:18:39.505Z,8.45
2023-03-02T13:21:10.521Z,8.27
2023-03-02T13:23:49.057Z,8.13
2023-03-02T13:26:35.526Z,7.99
2023-03-02T13:29:14.803Z,7.83
2023-03-02T13:31:42.797Z,7.97
2023-03-02T13:34:21.122Z,7.69
2023-03-02T13:36:48.439Z,7.95
2023-03-02T13:39:20.907Z,7.91
2023-03-02T13:41:59.486Z,7.61
2023-03-02T13:44:33.354Z,7.27
2023-03-02T13:47:02.005Z,7.11
2023-03-02T13:49:35.382Z,6.99
2023-03-02T13:52:30.928Z,7.14
2023-03-02T13:54:58.728Z,7.27
2023-03-02T13:57:32.213Z,7.22
2023-03-02T14:00:00.544Z,7.25
2023-03-02T14:02:30.197Z,7.27
2023-03-02T14:04:58.156Z,7.53
2023-03-02T14:07:25.549Z,7.68
2023-03-02T14:09:53.173Z,7.57
2023-03-02T14:12:28.014Z,7.72
2023-03-02T14:14:59.869Z,7.71
2023-03-02T14:17:27.816Z,7.47
2023-03-02T14:19:56.084Z,7.32
2023-03-02T14:22:25.720Z,7.39
2023-03-02T14:24:53.804Z,7.44
2023-03-02T14:27:26.110Z,7.30
2023-03-02T14:29:53.688Z,7.25
2023-03-02T14:32:20.955Z,7.23
2023-03-02T14:34:48.588Z,6.85
2023-03-02T14:37:18.731Z,7.03
2023-03-02T14:39:56.884Z,6.87
2023-03-02T14:42:24.173Z,6.73
2023-03-02T14:44:52.160Z,6.79
2023-03-02T14:47:19.814Z,6.77
2023-03-02T14:49:49.429Z,6.79
2023-03-02T14:52:26.494Z,6.52
2023-03-02T14:55:00.826Z,6.12
2023-03-02T14:57:30.367Z,6.35
2023-03-02T15:00:00.039Z,6.36
2023-03-02T15:02:27.794Z,6.55
2023-03-02T15:04:57.444Z,6.33
2023-03-02T15:07:27.632Z,6.35
2023-03-02T15:09:56.961Z,6.58
2023-03-02T15:12:24.957Z,6.27
2023-03-02T15:14:52.493Z,5.92
2023-03-02T15:17:20.224Z,5.71
2023-03-02T15:19:48.399Z,5.96
2023-03-02T15:22:16.122Z,6.07
2023-03-02T15:24:43.651Z,5.89
2023-03-02T15:27:10.968Z,5.81
2023-03-02T15:29:38.458Z,5.55
2023-03-02T15:32:05.935Z,5.55
2023-03-02T15:34:33.492Z,5.51
2023-03-02T15:37:00.742Z,5.45
2023-03-02T15:39:28.423Z,5.24
2023-03-02T15:41:55.682Z,5.20
2023-03-02T15:44:24.542Z,5.04
2023-03-02T15:46:56.360Z,5.04
2023-03-02T15:49:27.300Z,4.89
2023-03-02T15:51:57.680Z,4.94
2023-03-02T15:54:26.928Z,4.78
2023-03-02T15:56:54.678Z,4.74
2023-03-02T15:59:28.500Z,4.76
2023-03-02T16:01:59.828Z,4.54
2023-03-02T16:04:29.083Z,3.99
2023-03-02T16:06:56.994Z,4.30
2023-03-02T16:09:25.706Z,4.13
2023-03-02T16:11:53.306Z,4.14
2023-03-02T16:14:20.808Z,4.24
2023-03-02T16:16:48.366Z,4.14
2023-03-02T16:19:19.180Z,4.01
2023-03-02T16:21:47.966Z,3.98
2023-03-02T16:24:17.236Z,3.90
2023-03-02T16:26:45.067Z,3.78
2023-03-02T16:29:14.058Z,3.48
2023-03-02T16:31:41.858Z,3.32
2023-03-02T16:34:11.139Z,3.40
2023-03-02T16:36:40.332Z,3.32
2023-03-02T16:39:10.134Z,3.46
2023-03-02T16:41:39.293Z,3.45
2023-03-02T16:44:07.120Z,3.17
2023-03-02T16:46:36.852Z,3.00
2023-03-02T16:49:05.123Z,3.01
2023-03-02T16:51:33.198Z,2.99
2023-03-02T16:54:00.908Z,2.65
2023-03-02T16:56:28.464Z,2.88
2023-03-02T16:58:57.751Z,2.66
2023-03-02T17:01:27.076Z,2.46
2023-03-02T17:03:54.907Z,2.57
2023-03-02T17:06:23.681Z,2.57
2023-03-02T17:08:51.599Z,2.53
2023-03-02T17:11:19.978Z,2.63
2023-03-02T17:13:47.650Z,2.48
2023-03-02T17:16:16.285Z,2.51
2023-03-02T17:18:47.032Z,2.60
2023-03-02T17:21:16.506Z,2.94
2023-03-02T17:23:44.714Z,3.04
2023-03-02T17:26:12.149Z,2.81
2023-03-02T17:28:39.838Z,2.93
2023-03-02T17:31:07.358Z,2.86
2023-03-02T17:33:35.322Z,2.90
2023-03-02T17:36:07.401Z,2.79
2023-03-02T17:38:35.355Z,2.57
2023-03-02T17:41:07.437Z,2.40
2023-03-02T17:43:37.311Z,2.51
2023-03-02T17:46:20.234Z,2.59
2023-03-02T17:48:49.565Z,2.56
2023-03-02T17:51:17.477Z,2.56
2023-03-02T17:53:47.552Z,2.55
2023-03-02T17:56:18.942Z,2.55
2023-03-02T17:58:46.711Z,2.37
2023-03-02T18:01:15.988Z,2.45
2023-03-02T18:03:45.296Z,2.57
2023-03-02T18:06:13.466Z,2.45
2023-03-02T18:08:41.185Z,2.46
2023-03-02T18:11:08.620Z,2.16
2023-03-02T18:13:36.290Z,2.38
2023-03-02T18:16:04.062Z,2.48
2023-03-02T18:18:31.722Z,2.34
2023-03-02T18:20:59.124Z,2.27
2023-03-02T18:23:26.933Z,2.41
2023-03-02T18:25:54.203Z,2.50
2023-03-02T18:28:22.066Z,2.53
2023-03-02T18:30:49.317Z,2.10
2023-03-02T18:33:16.879Z,2.44
2023-03-02T18:35:44.228Z,2.48
2023-03-02T18:38:11.804Z,2.45
2023-03-02T18:40:39.281Z,2.39
2023-03-02T18:43:06.928Z,2.10
2023-03-02T18:45:34.366Z,2.08
2023-03-02T18:48:02.491Z,2.05
2023-03-02T18:50:30.377Z,2.21
2023-03-02T18:52:58.070Z,2.17
2023-03-02T18:55:25.556Z,2.34
2023-03-02T18:57:55.898Z,2.19
2023-03-02T19:00:27.917Z,2.31
2023-03-02T19:02:56.840Z,2.12
2023-03-02T19:05:27.097Z,2.23
2023-03-02T19:07:54.960Z,2.31
2023-03-02T19:10:22.224Z,2.23
2023-03-02T19:12:50.300Z,2.40
2023-03-02T19:15:17.938Z,2.37
2023-03-02T19:17:46.096Z,2.43
2023-03-02T19:20:17.748Z,2.45
2023-03-02T19:22:45.114Z,2.37
2023-03-02T19:25:12.710Z,2.24
2023-03-02T19:27:40.620Z,1.81
2023-03-02T19:30:11.950Z,2.06
2023-03-02T19:32:39.614Z,2.01
2023-03-02T19:35:07.661Z,2.01
2023-03-02T19:37:35.334Z,2.07
2023-03-02T19:40:02.583Z,1.99
2023-03-02T19:42:33.822Z,2.08
2023-03-02T19:45:03.278Z,1.96
2023-03-02T19:47:32.225Z,1.99
2023-03-02T19:49:59.468Z,1.81
2023-03-02T19:52:27.203Z,1.73
2023-03-02T19:54:54.578Z,1.84
2023-03-02T19:57:22.131Z,1.98
2023-03-02T19:59:49.424Z,1.81
2023-03-02T20:02:17.352Z,1.74
2023-03-02T20:04:46.793Z,1.70
2023-03-02T20:07:14.472Z,1.96
2023-03-02T20:09:42.515Z,1.95
2023-03-02T20:12:10.987Z,1.76
2023-03-02T20:14:40.680Z,1.90
2023-03-02T20:17:08.201Z,1.52
2023-03-02T20:19:35.510Z,1.79
2023-03-02T20:22:03.842Z,1.96
2023-03-02T20:24:31.122Z,2.11
2023-03-02T20:26:58.943Z,2.15
2023-03-02T20:29:26.955Z,2.07
2023-03-02T20:31:54.830Z,2.10
2023-03-02T20:34:22.202Z,2.18
2023-03-02T20:36:50.139Z,2.06
2023-03-02T20:39:25.487Z,2.09
2023-03-02T20:41:53.693Z,2.13
2023-03-02T20:44:22.384Z,2.07
2023-03-02T20:46:55.089Z,1.96
2023-03-02T20:49:24.373Z,1.96
2023-03-02T20:51:56.560Z,1.99
2023-03-02T20:54:29.023Z,1.97
2023-03-02T20:56:57.818Z,1.97
2023-03-02T20:59:26.160Z,1.76
2023-03-02T21:01:54.018Z,1.77
2023-03-02T21:04:21.734Z,1.78
2023-03-02T21:06:50.081Z,1.59
2023-03-02T21:09:18.286Z,1.71
2023-03-02T21:11:46.923Z,1.45
2023-03-02T21:14:14.567Z,1.52
2023-03-02T21:16:43.837Z,1.59
2023-03-02T21:19:16.332Z,1.65
2023-03-02T21:21:44.229Z,1.51
2023-03-02T21:24:16.920Z,1.62
2023-03-02T21:26:45.889Z,1.46
2023-03-02T21:29:14.036Z,1.63
2023-03-02T21:31:43.903Z,1.34
2023-03-02T21:34:12.888Z,1.48
2023-03-02T21:36:40.816Z,1.47
2023-03-02T21:39:09.693Z,1.46
2023-03-02T21:41:37.510Z,1.45
2023-03-02T21:44:05.835Z,1.48
2023-03-02T21:46:35.045Z,1.48
2023-03-02T21:49:02.673Z,1.38
2023-03-02T21:51:30.329Z,1.21
2023-03-02T21:53:58.007Z,1.23
2023-03-02T21:56:26.639Z,1.14
2023-03-02T21:58:56.458Z,1.13
2023-03-02T22:01:26.497Z,0.96
2023-03-02T22:03:53.899Z,0.99
2023-03-02T22:06:24.433Z,0.80
2023-03-02T22:08:52.346Z,1.14
2023-03-02T22:11:25.852Z,0.98
2023-03-02T22:13:56.491Z,0.91
2023-03-02T22:16:27.058Z,1.14
2023-03-02T22:18:59.989Z,0.84
2023-03-02T22:21:38.998Z,1.05
2023-03-02T22:24:18.383Z,1.02
2023-03-02T22:27:19.051Z,0.83
2023-03-02T22:29:48.314Z,1.05
2023-03-02T22:32:23.183Z,1.30
2023-03-02T22:34:58.667Z,0.95
2023-03-02T22:37:33.028Z,0.99
2023-03-02T22:40:34.215Z,1.06
2023-03-02T22:43:24.895Z,1.00
2023-03-02T22:45:53.735Z,0.81
2023-03-02T22:48:23.141Z,0.71
2023-03-02T22:50:50.650Z,0.80
2023-03-02T22:53:27.213Z,0.62
2023-03-02T22:55:57.702Z,0.74
2023-03-02T22:58:50.567Z,0.79
2023-03-02T23:01:24.359Z,0.84
2023-03-02T23:04:15.372Z,0.81
2023-03-02T23:06:48.680Z,1.00
2023-03-02T23:09:23.413Z,0.92
2023-03-02T23:11:51.724Z,0.63
2023-03-02T23:14:23.620Z,0.58
2023-03-02T23:16:54.620Z,0.57
2023-03-02T23:19:22.249Z,0.69
2023-03-02T23:21:49.862Z,0.79
2023-03-02T23:24:20.816Z,0.75
2023-03-02T23:26:52.503Z,0.80
2023-03-02T23:29:20.111Z,0.79
2023-03-02T23:31:48.267Z,0.67
2023-03-02T23:34:16.342Z,0.74
2023-03-02T23:36:43.806Z,0.86
2023-03-02T23:39:11.789Z,0.82
2023-03-02T23:41:39.321Z,0.75
2023-03-02T23:44:07.568Z,0.92
2023-03-02T23:46:35.307Z,0.93
2023-03-02T23:49:02.932Z,1.04
2023-03-02T23:51:30.183Z,0.91
2023-03-02T23:53:57.762Z,0.95
2023-03-02T23:56:25.213Z,0.83
2023-03-02T23:58:52.757Z,0.80
